Time;durP1;ratioP1;P1;durP2;ratioP2;P2;SDS_P1;SDS_P2;PMS_P1;PMS_P2;Temp;Humidity;BMP_temperature;BMP_pressure;BME280_temperature;BME280_humidity;BME280_pressure;Samples;Min_cycle;Max_cycle;Signal;HPM_P1;HPM_P2
2022/02/23 00:01:12;;;;;;;;;;;;;;;16.78;36.79;101141.63;4369367;32;19994;-69
2022/02/23 00:03:56;;;;;;;;;;;;;;;16.75;37.16;101144.66;4370014;32;20405;-69
2022/02/23 00:06:41;;;;;;;;;;;;;;;17.35;36.40;101143.56;4370023;32;20024;-69
2022/02/23 00:09:25;;;;;;;;;;;;;;;17.27;36.68;101139.44;4370479;32;20354;-69
2022/02/23 00:12:09;;;;;;;;;;;;;;;17.24;36.97;101151.78;4368730;32;19962;-69
2022/02/23 00:14:53;;;;;;;;;;;;;;;16.70;38.17;101146.06;4368227;32;20380;-69
2022/02/23 00:17:37;;;;;;;;;;;;;;;17.19;37.41;101143.09;4368675;32;20385;-69
2022/02/23 00:20:22;;;;;;;;;;;;;;;16.64;38.24;101136.56;4370008;32;20316;-69
2022/02/23 00:23:06;;;;;;;;;;;;;;;16.94;37.68;101143.41;4387084;32;20441;-69
2022/02/23 00:25:50;;;;;;;;;;;;;;;17.01;37.58;101138.19;4396714;32;20386;-69
2022/02/23 00:28:34;;;;;;;;;;;;;;;17.19;36.96;101143.88;4399676;32;19967;-69
2022/02/23 00:31:18;;;;;;;;;;;;;;;17.06;36.97;101137.53;4397416;32;20004;-69
2022/02/23 00:34:02;;;;;;;;;;;;;;;17.25;36.88;101141.97;4397865;32;20023;-69
2022/02/23 00:36:46;;;;;;;;;;;;;;;17.00;37.13;101142.28;4397115;32;20015;-69
2022/02/23 00:39:30;;;;;;;;;;;;;;;17.39;36.48;101135.66;4397469;32;20040;-69
2022/02/23 00:42:14;;;;;;;;;;;;;;;17.31;36.49;101136.44;4394356;32;20015;-69
2022/02/23 00:44:58;;;;;;;;;;;;;;;17.02;36.52;101134.06;4399013;32;20046;-69
2022/02/23 00:47:42;;;;;;;;;;;;;;;17.34;36.18;101146.88;4398062;32;20343;-69
2022/02/23 00:50:26;;;;;;;;;;;;;;;16.82;36.43;101139.44;4397414;32;19988;-69
2022/02/23 00:53:10;;;;;;;;;;;;;;;17.08;35.79;101145.59;4396965;32;20349;-69
2022/02/23 00:55:54;;;;;;;;;;;;;;;17.28;35.41;101134.56;4415999;32;20060;-69
2022/02/23 00:58:38;;;;;;;;;;;;;;;17.22;35.59;101148.63;4416184;32;19972;-69
2022/02/23 01:01:22;;;;;;;;;;;;;;;17.10;35.50;101146.72;4413982;32;20372;-69
2022/02/23 01:04:07;;;;;;;;;;;;;;;16.91;35.84;101145.13;4416340;32;20496;-69
2022/02/23 01:06:51;;;;;;;;;;;;;;;17.02;35.49;101156.81;4420918;32;20084;-69
2022/02/23 01:09:35;;;;;;;;;;;;;;;17.25;35.05;101150.50;4415916;32;20030;-69
2022/02/23 01:12:19;;;;;;;;;;;;;;;17.12;35.18;101149.09;4422002;32;19975;-69
2022/02/23 01:15:04;;;;;;;;;;;;;;;17.03;35.11;101134.87;4420070;32;20490;-69
2022/02/23 01:17:48;;;;;;;;;;;;;;;16.73;35.28;101147.16;4417410;32;19982;-69
2022/02/23 01:20:32;;;;;;;;;;;;;;;17.03;35.03;101152.72;4417662;32;19963;-69
2022/02/23 01:23:16;;;;;;;;;;;;;;;16.92;35.05;101151.59;4415856;32;20374;-69
2022/02/23 01:26:00;;;;;;;;;;;;;;;16.98;34.88;101156.19;4415524;32;20454;-69
2022/02/23 01:28:45;;;;;;;;;;;;;;;16.99;34.97;101157.78;4415520;32;20043;-69
2022/02/23 01:31:29;;;;;;;;;;;;;;;16.71;35.27;101146.81;4417920;32;20284;-69
2022/02/23 01:34:12;;;;;;;;;;;;;;;16.62;35.48;101143.97;4415799;32;20061;-69
2022/02/23 01:36:57;;;;;;;;;;;;;;;16.72;35.14;101148.44;4413410;32;20524;-69
2022/02/23 01:39:42;;;;;;;;;;;;;;;16.79;35.03;101153.81;4415546;32;20484;-69
2022/02/23 01:42:26;;;;;;;;;;;;;;;16.95;34.84;101147.81;4414792;32;19968;-69
2022/02/23 01:45:10;;;;;;;;;;;;;;;17.02;34.53;101156.03;4420155;32;19984;-69
2022/02/23 01:47:54;;;;;;;;;;;;;;;16.90;34.69;101145.59;4414512;32;19972;-69
2022/02/23 01:50:41;;;;;;;;;;;;;;;16.98;34.27;101144.81;4414889;32;20374;-69
2022/02/23 01:53:27;;;;;;;;;;;;;;;16.91;34.38;101147.97;4415718;32;19996;-69
2022/02/23 01:56:11;;;;;;;;;;;;;;;16.74;34.46;101155.22;4415818;32;19991;-68
2022/02/23 01:58:57;;;;;;;;;;;;;;;16.66;34.63;101148.25;4364785;32;20371;-68
2022/02/23 02:01:41;;;;;;;;;;;;;;;16.92;34.14;101141.03;4366190;32;20346;-68
2022/02/23 02:04:26;;;;;;;;;;;;;;;17.04;34.08;101142.94;4415861;32;19972;-68
2022/02/23 02:07:10;;;;;;;;;;;;;;;16.82;34.22;101132.97;4415488;32;19968;-68
2022/02/23 02:10:02;;;;;;;;;;;;;;;16.65;34.91;101125.97;4415766;32;20571;-69
2022/02/23 02:12:46;;;;;;;;;;;;;;;16.64;35.26;101115.88;4417848;32;19971;-69
2022/02/23 02:15:30;;;;;;;;;;;;;;;16.50;35.60;101122.19;4416295;32;19987;-69
2022/02/23 02:18:14;;;;;;;;;;;;;;;16.33;36.22;101109.47;4413981;32;20062;-69
2022/02/23 02:21:08;;;;;;;;;;;;;;;15.44;38.02;101105.75;4392008;32;20498;-69
2022/02/23 02:23:53;;;;;;;;;;;;;;;15.58;38.05;101114.50;4392260;32;20028;-69
2022/02/23 02:26:41;;;;;;;;;;;;;;;15.17;38.48;101109.16;4379938;32;20004;-69
2022/02/23 02:29:19;;;;;;;;;;;;;;;15.17;38.62;101089.31;4382519;32;19954;-69
2022/02/23 02:31:49;;;;;;;;;;;;;;;15.02;38.95;101090.28;4381641;32;20034;-69
2022/02/23 02:34:33;;;;;;;;;;;;;;;14.51;39.87;101091.75;4381198;32;20025;-69
2022/02/23 02:36:59;;;;;;;;;;;;;;;14.61;39.49;101085.72;4381843;32;20059;-69
2022/02/23 02:39:43;;;;;;;;;;;;;;;15.00;38.93;101087.16;4379390;32;20038;-69
2022/02/23 02:42:30;;;;;;;;;;;;;;;15.14;38.50;101087.41;4380617;32;19984;-69
2022/02/23 02:45:15;;;;;;;;;;;;;;;15.13;38.64;101088.66;4375389;32;21076;-69
2022/02/23 02:48:05;;;;;;;;;;;;;;;15.06;38.67;101088.91;4379303;32;20009;-69
2022/02/23 02:50:32;;;;;;;;;;;;;;;14.85;38.92;101086.84;4380970;32;20023;-69
2022/02/23 02:53:19;;;;;;;;;;;;;;;14.86;38.92;101084.81;4350605;32;19959;-68
2022/02/23 02:56:06;;;;;;;;;;;;;;;14.82;39.15;101095.50;4306098;33;19983;-68
2022/02/23 02:58:57;;;;;;;;;;;;;;;14.62;39.25;101094.97;4281509;33;20489;-69
2022/02/23 03:01:41;;;;;;;;;;;;;;;14.77;38.82;101087.56;4280817;33;20452;-69
2022/02/23 03:04:26;;;;;;;;;;;;;;;14.72;38.76;101080.44;4282294;33;20110;-69
2022/02/23 03:07:10;;;;;;;;;;;;;;;14.69;38.79;101084.19;4280785;33;20462;-69
2022/02/23 03:09:54;;;;;;;;;;;;;;;14.69;38.44;101078.53;4280122;33;19999;-70
2022/02/23 03:12:38;;;;;;;;;;;;;;;14.64;38.17;101081.97;4281178;33;20421;-70
2022/02/23 03:15:22;;;;;;;;;;;;;;;14.83;37.71;101075.19;4279955;33;20026;-70
2022/02/23 03:17:52;;;;;;;;;;;;;;;15.43;36.83;101076.59;4279192;33;19967;-71
2022/02/23 03:20:43;;;;;;;;;;;;;;;15.78;35.82;101085.78;4281655;33;20015;-70
2022/02/23 03:23:29;;;;;;;;;;;;;;;15.55;35.68;101075.72;4299235;32;20296;-70
2022/02/23 03:26:14;;;;;;;;;;;;;;;15.94;35.01;101077.81;4350375;32;19985;-70
2022/02/23 03:28:58;;;;;;;;;;;;;;;16.41;34.21;101077.44;4350318;32;20014;-70
2022/02/23 03:31:42;;;;;;;;;;;;;;;16.55;33.87;101065.50;4351544;32;20024;-70
2022/02/23 03:34:26;;;;;;;;;;;;;;;16.67;33.92;101063.78;4352399;32;20391;-71
2022/02/23 03:37:10;;;;;;;;;;;;;;;16.79;33.71;101057.97;4351185;32;20073;-70
2022/02/23 03:40:05;;;;;;;;;;;;;;;16.63;33.63;101058.25;4350253;32;19988;-71
2022/02/23 03:42:32;;;;;;;;;;;;;;;16.92;33.33;101049.25;4352039;32;20010;-71
2022/02/23 03:45:26;;;;;;;;;;;;;;;17.00;33.29;101050.53;4352283;32;20359;-70
2022/02/23 03:47:54;;;;;;;;;;;;;;;16.57;33.80;101060.13;4395958;32;20006;-70
2022/02/23 03:50:44;;;;;;;;;;;;;;;16.47;34.14;101050.03;4397651;32;20002;-71
2022/02/23 03:53:14;;;;;;;;;;;;;;;16.52;34.36;101057.94;4397512;32;20324;-70
2022/02/23 03:56:00;;;;;;;;;;;;;;;16.56;34.27;101058.56;4414087;32;19997;-71
2022/02/23 03:58:26;;;;;;;;;;;;;;;16.08;35.30;101041.56;4416551;32;20395;-70
2022/02/23 04:01:10;;;;;;;;;;;;;;;15.79;35.93;101047.63;4417854;32;20050;-70
2022/02/23 04:03:38;;;;;;;;;;;;;;;15.66;36.27;101042.06;4419118;32;19989;-70
2022/02/23 04:06:23;;;;;;;;;;;;;;;15.61;36.56;101047.53;4421844;32;20018;-70
2022/02/23 04:09:08;;;;;;;;;;;;;;;15.35;37.04;101044.06;4420272;32;20023;-71
2022/02/23 04:11:52;;;;;;;;;;;;;;;14.86;37.95;101019.66;4419194;32;20782;-71
2022/02/23 04:14:36;;;;;;;;;;;;;;;14.41;38.95;101022.09;4417144;32;20331;-71
2022/02/23 04:17:27;;;;;;;;;;;;;;;14.56;38.66;101026.00;4407241;32;20007;-71
2022/02/23 04:20:12;;;;;;;;;;;;;;;15.38;37.02;101036.72;4416195;32;19996;-71
2022/02/23 04:23:04;;;;;;;;;;;;;;;16.06;35.52;101038.41;4413015;32;19964;-71
2022/02/23 04:26:04;;;;;;;;;;;;;;;16.07;35.73;101034.31;4403624;32;20513;-71
2022/02/23 04:28:50;;;;;;;;;;;;;;;16.02;35.35;101032.09;4369319;32;20011;-71
2022/02/23 04:31:50;;;;;;;;;;;;;;;16.05;35.28;101029.09;4393281;32;20014;-71
2022/02/23 04:34:16;;;;;;;;;;;;;;;15.89;35.56;101046.38;4401334;32;20380;-71
2022/02/23 04:37:02;;;;;;;;;;;;;;;15.80;35.62;101032.97;4400618;32;20000;-71
2022/02/23 04:39:46;;;;;;;;;;;;;;;16.26;34.97;101036.69;4386889;32;20449;-71
2022/02/23 04:42:15;;;;;;;;;;;;;;;16.41;34.36;101037.69;4400760;32;20027;-71
2022/02/23 04:44:41;;;;;;;;;;;;;;;16.31;34.42;101029.63;4402061;32;20034;-71
2022/02/23 04:47:29;;;;;;;;;;;;;;;16.35;34.46;101044.47;4403574;32;19960;-71
2022/02/23 04:50:13;;;;;;;;;;;;;;;16.48;34.20;101028.09;4400845;32;20107;-71
2022/02/23 04:53:12;;;;;;;;;;;;;;;16.54;34.20;101026.22;4344457;32;20442;-71
2022/02/23 04:55:57;;;;;;;;;;;;;;;16.42;34.05;101039.28;4342216;32;20579;-71
2022/02/23 04:58:44;;;;;;;;;;;;;;;15.50;35.57;101027.31;4342573;32;19998;-71
2022/02/23 05:01:10;;;;;;;;;;;;;;;16.20;34.71;101040.66;4344853;32;20034;-71
2022/02/23 05:03:37;;;;;;;;;;;;;;;16.39;34.64;101037.37;4383583;32;20005;-71
2022/02/23 05:06:05;;;;;;;;;;;;;;;16.84;33.98;101026.03;4393055;32;19992;-71
2022/02/23 05:08:49;;;;;;;;;;;;;;;16.80;34.10;101024.63;4394876;32;20128;-71
2022/02/23 05:11:33;;;;;;;;;;;;;;;16.79;34.25;101018.16;4394873;32;19998;-71
2022/02/23 05:14:18;;;;;;;;;;;;;;;16.32;34.78;101023.47;4394762;32;20374;-71
2022/02/23 05:17:19;;;;;;;;;;;;;;;16.46;34.73;101028.56;4350834;32;20412;-71
2022/02/23 05:20:04;;;;;;;;;;;;;;;16.72;34.46;101012.00;4347054;32;20017;-71
2022/02/23 05:22:49;;;;;;;;;;;;;;;16.39;34.67;101013.84;4350440;32;20025;-71
2022/02/23 05:25:35;;;;;;;;;;;;;;;16.69;34.28;100996.69;4337356;32;20006;-70
2022/02/23 05:28:19;;;;;;;;;;;;;;;16.76;33.93;101002.06;4348660;32;19961;-70
2022/02/23 05:31:03;;;;;;;;;;;;;;;16.50;34.25;100997.94;4352779;32;20066;-70
2022/02/23 05:33:47;;;;;;;;;;;;;;;16.63;34.11;100994.97;4352518;32;20039;-70
2022/02/23 05:36:31;;;;;;;;;;;;;;;16.44;34.53;100997.00;4352790;32;19965;-70
2022/02/23 05:39:17;;;;;;;;;;;;;;;16.68;34.36;101000.78;4349072;32;19947;-70
2022/02/23 05:42:07;;;;;;;;;;;;;;;17.30;33.22;101007.63;4338549;32;20073;-70
2022/02/23 05:44:51;;;;;;;;;;;;;;;17.19;33.22;100998.03;4351404;32;19993;-70
2022/02/23 05:47:40;;;;;;;;;;;;;;;17.27;33.07;100993.56;4341892;32;20021;-70
2022/02/23 05:50:37;;;;;;;;;;;;;;;17.35;33.06;100995.63;4355397;32;20388;-70
2022/02/23 05:53:21;;;;;;;;;;;;;;;17.69;32.22;101002.94;4398752;32;19973;-70
2022/02/23 05:56:19;;;;;;;;;;;;;;;17.85;32.17;100997.66;4363563;32;20128;-70
2022/02/23 05:59:03;;;;;;;;;;;;;;;17.99;31.77;101001.84;4364328;32;19973;-70
2022/02/23 06:01:47;;;;;;;;;;;;;;;17.64;31.85;101007.22;4362620;32;20661;-70
2022/02/23 06:04:34;;;;;;;;;;;;;;;17.78;32.21;100983.78;4364541;32;20328;-70
2022/02/23 06:07:18;;;;;;;;;;;;;;;17.88;31.98;100990.19;4361979;32;20020;-70
2022/02/23 06:10:08;;;;;;;;;;;;;;;18.20;31.52;100977.19;4363619;32;19954;-70
2022/02/23 06:12:56;;;;;;;;;;;;;;;18.08;32.00;100978.22;4384634;32;19990;-70
2022/02/23 06:15:42;;;;;;;;;;;;;;;18.13;31.98;100978.31;4393989;32;20005;-70
2022/02/23 06:18:28;;;;;;;;;;;;;;;18.03;32.17;100967.47;4394112;32;20012;-70
2022/02/23 06:21:32;;;;;;;;;;;;;;;18.15;32.02;100963.59;4334694;33;19978;-71
2022/02/23 06:24:16;;;;;;;;;;;;;;;18.03;32.15;100962.56;4337956;33;20320;-70
2022/02/23 06:27:00;;;;;;;;;;;;;;;17.93;32.49;100958.22;4334835;33;20012;-70
2022/02/23 06:29:25;;;;;;;;;;;;;;;17.46;33.58;100961.78;4336645;33;19982;-70
2022/02/23 06:32:12;;;;;;;;;;;;;;;17.37;33.95;100953.25;4335008;33;19969;-70
2022/02/23 06:35:03;;;;;;;;;;;;;;;17.61;33.46;100947.62;4290275;33;19966;-71
2022/02/23 06:37:50;;;;;;;;;;;;;;;17.72;33.30;100945.03;4292173;33;20063;-71
2022/02/23 06:40:35;;;;;;;;;;;;;;;17.82;33.41;100930.28;4293622;33;19970;-70
2022/02/23 06:43:19;;;;;;;;;;;;;;;17.52;33.86;100939.94;4296580;33;20476;-71
2022/02/23 06:46:05;;;;;;;;;;;;;;;17.79;33.48;100936.94;4291075;33;20306;-71
2022/02/23 06:48:49;;;;;;;;;;;;;;;16.55;35.24;100911.28;4292891;33;19979;-71
2022/02/23 06:51:40;;;;;;;;;;;;;;;16.64;35.30;100916.97;4305932;32;20006;-71
2022/02/23 06:54:32;;;;;;;;;;;;;;;17.27;34.01;100917.56;4330383;32;19951;-71
2022/02/23 06:57:34;;;;;;;;;;;;;;;17.48;33.88;100925.09;4336453;32;19973;-70
2022/02/23 07:00:25;;;;;;;;;;;;;;;17.53;33.75;100923.66;4341445;32;20052;-70
2022/02/23 07:03:17;;;;;;;;;;;;;;;17.37;34.09;100913.41;4341059;32;20006;-70
2022/02/23 07:05:51;;;;;;;;;;;;;;;17.08;34.40;100913.22;4358511;32;20007;-71
2022/02/23 07:08:35;;;;;;;;;;;;;;;16.51;34.67;100907.84;4385643;32;19992;-70
2022/02/23 07:11:19;;;;;;;;;;;;;;;17.06;33.93;100914.97;4384235;32;20021;-70
2022/02/23 07:14:04;;;;;;;;;;;;;;;17.15;33.53;100923.47;4386126;32;20199;-71
2022/02/23 07:16:48;;;;;;;;;;;;;;;17.00;33.51;100931.87;4384725;32;20049;-71
2022/02/23 07:19:33;;;;;;;;;;;;;;;17.11;33.33;100932.16;4383910;32;19993;-71
2022/02/23 07:21:58;;;;;;;;;;;;;;;17.06;33.25;100918.59;4381408;32;20006;-70
2022/02/23 07:24:42;;;;;;;;;;;;;;;17.08;33.13;100916.06;4390310;32;20001;-71
2022/02/23 07:27:37;;;;;;;;;;;;;;;17.26;33.26;100896.09;4409613;32;20059;-71
2022/02/23 07:30:25;;;;;;;;;;;;;;;16.86;33.60;100900.50;4403413;32;20004;-71
2022/02/23 07:33:10;;;;;;;;;;;;;;;16.77;33.40;100907.00;4407670;32;20012;-71
2022/02/23 07:35:37;;;;;;;;;;;;;;;17.32;32.61;100911.25;4411394;32;20016;-71
2022/02/23 07:38:12;;;;;;;;;;;;;;;17.33;32.43;100909.16;4406869;32;19962;-71
2022/02/23 07:40:56;;;;;;;;;;;;;;;17.18;32.87;100899.78;4406657;32;20058;-71
2022/02/23 07:43:26;;;;;;;;;;;;;;;17.17;33.17;100903.88;4403837;32;19949;-71
2022/02/23 07:45:58;;;;;;;;;;;;;;;16.98;33.77;100902.34;4402249;32;20001;-71
2022/02/23 07:48:25;;;;;;;;;;;;;;;16.85;34.05;100902.56;4403095;32;19993;-71
2022/02/23 07:51:11;;;;;;;;;;;;;;;16.42;34.83;100888.72;4405701;32;20335;-70
2022/02/23 07:53:43;;;;;;;;;;;;;;;16.97;34.08;100892.25;4406829;32;20023;-70
2022/02/23 07:56:10;;;;;;;;;;;;;;;16.65;34.66;100876.72;4395171;32;20331;-70
2022/02/23 07:58:58;;;;;;;;;;;;;;;16.75;34.57;100883.16;4400287;32;19965;-70
2022/02/23 08:01:28;;;;;;;;;;;;;;;15.94;35.84;100876.28;4396800;32;20425;-70
2022/02/23 08:04:20;;;;;;;;;;;;;;;16.39;35.35;100881.16;4397560;32;20008;-70
2022/02/23 08:07:08;;;;;;;;;;;;;;;16.15;35.60;100874.53;4397769;32;20618;-70
2022/02/23 08:09:59;;;;;;;;;;;;;;;16.55;35.10;100854.47;4398247;32;20355;-70
2022/02/23 08:12:46;;;;;;;;;;;;;;;17.15;34.17;100867.37;4401635;32;20042;-70
2022/02/23 08:21:13;;;;;;;;;;;;;;;17.30;34.24;100856.88;4394157;32;20503;-71
2022/02/23 08:24:04;;;;;;;;;;;;;;;17.25;33.92;100854.69;4370295;32;20494;-72
2022/02/23 08:26:48;;;;;;;;;;;;;;;17.65;33.64;100855.09;4364883;32;21223;-71
2022/02/23 08:29:40;;;;;;;;;;;;;;;17.34;33.81;100854.63;4366404;32;20024;-72
2022/02/23 08:32:26;;;;;;;;;;;;;;;17.18;34.17;100859.97;4367263;32;19950;-71
2022/02/23 08:35:10;;;;;;;;;;;;;;;17.14;34.47;100840.22;4369478;32;19992;-72
2022/02/23 08:37:59;;;;;;;;;;;;;;;17.76;33.63;100829.72;4362395;32;20012;-71
2022/02/23 08:40:51;;;;;;;;;;;;;;;17.80;33.61;100835.25;4323605;32;20003;-72
2022/02/23 08:43:42;;;;;;;;;;;;;;;17.98;33.62;100837.16;4308967;33;20283;-72
2022/02/23 08:46:34;;;;;;;;;;;;;;;18.33;33.06;100823.84;4310538;33;20011;-72
2022/02/23 08:49:18;;;;;;;;;;;;;;;18.37;33.17;100825.25;4323263;32;20028;-73
2022/02/23 08:52:04;;;;;;;;;;;;;;;18.41;32.95;100825.09;4318857;33;20041;-72
2022/02/23 08:54:48;;;;;;;;;;;;;;;18.27;33.26;100806.66;4328599;32;20032;-70
2022/02/23 08:57:32;;;;;;;;;;;;;;;18.81;32.73;100806.06;4333954;32;20032;-73
2022/02/23 09:00:16;;;;;;;;;;;;;;;18.82;32.63;100807.66;4370205;32;19965;-72
2022/02/23 09:03:00;;;;;;;;;;;;;;;19.35;32.05;100798.88;4367805;32;19987;-71
2022/02/23 09:05:55;;;;;;;;;;;;;;;19.07;32.56;100795.63;4316484;33;19979;-71
2022/02/23 09:08:39;;;;;;;;;;;;;;;17.93;34.58;100775.97;4317606;33;20017;-72
2022/02/23 09:11:33;;;;;;;;;;;;;;;17.89;35.00;100781.09;4317003;33;19962;-72
2022/02/23 09:14:19;;;;;;;;;;;;;;;18.52;34.32;100788.22;4261642;33;20430;-73
2022/02/23 09:17:03;;;;;;;;;;;;;;;18.63;33.89;100788.41;4262453;33;20098;-72
2022/02/23 09:19:50;;;;;;;;;;;;;;;18.50;34.37;100780.16;4309363;33;19955;-72
2022/02/23 09:22:36;;;;;;;;;;;;;;;18.17;34.88;100778.75;4300805;33;19963;-72
2022/02/23 09:25:21;;;;;;;;;;;;;;;18.25;34.91;100783.56;4324182;33;20542;-72
2022/02/23 09:28:06;;;;;;;;;;;;;;;18.99;33.58;100771.63;4307650;33;19963;-72
2022/02/23 09:30:50;;;;;;;;;;;;;;;18.67;34.35;100774.75;4304313;33;20041;-72
2022/02/23 09:33:35;;;;;;;;;;;;;;;18.38;34.68;100783.31;4320990;32;20304;-71
2022/02/23 09:36:30;;;;;;;;;;;;;;;19.24;33.13;100775.87;4346901;32;20069;-72
2022/02/23 09:39:21;;;;;;;;;;;;;;;18.82;33.62;100773.44;4339148;32;19966;-72
2022/02/23 09:42:10;;;;;;;;;;;;;;;19.68;32.46;100783.00;4306826;33;20001;-71
2022/02/23 09:44:59;;;;;;;;;;;;;;;19.75;32.16;100765.44;4308067;33;20017;-71
2022/02/23 09:47:46;;;;;;;;;;;;;;;19.97;31.94;100779.16;4305692;33;20047;-71
2022/02/23 09:50:30;;;;;;;;;;;;;;;20.64;30.96;100772.84;4310366;33;20140;-71
2022/02/23 09:53:15;;;;;;;;;;;;;;;20.31;31.05;100755.37;4310153;33;20017;-71
2022/02/23 09:56:01;;;;;;;;;;;;;;;21.01;30.23;100755.72;4296764;33;20043;-71
2022/02/23 09:58:46;;;;;;;;;;;;;;;19.98;31.59;100757.91;4297168;33;20015;-72
2022/02/23 10:01:53;;;;;;;;;;;;;;;20.59;30.77;100759.28;4263453;33;20000;-72
2022/02/23 10:04:51;;;;;;;;;;;;;;;20.66;30.58;100750.25;4239403;33;20520;-71
2022/02/23 10:07:42;;;;;;;;;;;;;;;20.18;31.29;100754.22;4252079;33;19971;-71
2022/02/23 10:10:34;;;;;;;;;;;;;;;19.54;32.10;100765.94;4263474;33;20067;-71
2022/02/23 10:13:22;;;;;;;;;;;;;;;20.31;31.04;100754.63;4267523;33;20413;-73
2022/02/23 10:16:12;;;;;;;;;;;;;;;20.68;30.68;100750.50;4269417;33;19998;-72
2022/02/23 10:19:04;;;;;;;;;;;;;;;20.87;30.36;100751.72;4290344;33;19986;-71
2022/02/23 10:21:56;;;;;;;;;;;;;;;21.36;29.62;100764.78;4265494;33;20265;-71
2022/02/23 10:24:41;;;;;;;;;;;;;;;20.91;30.27;100757.19;4312826;33;20131;-71
2022/02/23 10:27:32;;;;;;;;;;;;;;;21.15;29.82;100746.19;4315019;33;20443;-71
2022/02/23 10:30:32;;;;;;;;;;;;;;;21.36;29.47;100753.34;4312878;33;19974;-71
2022/02/23 10:33:19;;;;;;;;;;;;;;;22.22;28.48;100744.81;4329826;32;21066;-71
2022/02/23 10:38:44;;;;;;;;;;;;;;;24.00;26.23;100751.81;3949067;32;15781734;-71
2022/02/23 10:41:35;;;;;;;;;;;;;;;24.00;26.23;100751.81;4439367;32;20008;-71
2022/02/23 10:44:24;;;;;;;;;;;;;;;22.83;27.13;100770.66;4427833;32;20002;-72
2022/02/23 10:47:32;;;;;;;;;;;;;;;22.65;27.44;100749.03;4351820;32;20041;-72
2022/02/23 10:50:23;;;;;;;;;;;;;;;22.02;28.36;100744.22;4353823;32;20364;-71
2022/02/23 10:53:09;;;;;;;;;;;;;;;22.77;27.65;100746.94;4407782;32;19993;-70
2022/02/23 10:56:23;;;;;;;;;;;;;;;22.90;27.19;100750.03;4404239;32;20035;-71
2022/02/23 10:59:11;;;;;;;;;;;;;;;21.47;29.21;100748.44;4408628;32;19972;-71
2022/02/23 11:01:58;;;;;;;;;;;;;;;20.92;30.23;100716.62;4378147;32;20398;-71
2022/02/23 11:04:42;;;;;;;;;;;;;;;22.50;28.76;100705.47;4378050;32;20273;-71
2022/02/23 11:07:26;;;;;;;;;;;;;;;22.25;28.76;100711.44;4377939;32;20020;-71
2022/02/23 11:10:13;;;;;;;;;;;;;;;22.44;28.74;100710.41;4376655;32;20364;-71
2022/02/23 11:12:57;;;;;;;;;;;;;;;24.18;26.77;100708.81;4376881;32;20659;-71
2022/02/23 11:15:43;;;;;;;;;;;;;;;24.24;26.20;100703.78;4377795;32;20294;-72
2022/02/23 11:18:10;;;;;;;;;;;;;;;23.73;26.76;100698.09;4379483;32;20002;-71
2022/02/23 11:20:55;;;;;;;;;;;;;;;22.66;28.29;100689.56;4374982;32;20447;-72
2022/02/23 11:23:22;;;;;;;;;;;;;;;22.45;28.36;100683.28;4379764;32;20235;-72
2022/02/23 11:25:50;;;;;;;;;;;;;;;22.07;28.85;100674.69;4396249;32;19962;-72
2022/02/23 11:30:56;;;;;;;;;;;;;;;22.69;28.57;100672.09;3956163;31;15719708;-73
2022/02/23 11:33:42;;;;;;;;;;;;;;;22.18;29.08;100643.94;4440966;32;20021;-72
2022/02/23 11:36:32;;;;;;;;;;;;;;;21.37;30.49;100646.13;4441475;32;20021;-73
2022/02/23 11:39:00;;;;;;;;;;;;;;;21.01;31.11;100624.91;4442146;32;19965;-72
2022/02/23 11:41:28;;;;;;;;;;;;;;;21.17;30.96;100632.00;4441932;32;20073;-73
2022/02/23 11:43:59;;;;;;;;;;;;;;;22.29;29.72;100621.00;4439880;32;20365;-73
2022/02/23 11:46:24;;;;;;;;;;;;;;;21.91;29.72;100609.53;4439638;32;20184;-72
2022/02/23 11:48:56;;;;;;;;;;;;;;;21.65;30.00;100621.19;4438469;32;20056;-72
2022/02/23 11:51:24;;;;;;;;;;;;;;;21.76;30.14;100617.59;4436840;32;20349;-73
2022/02/23 11:53:50;;;;;;;;;;;;;;;21.92;29.81;100614.75;4442196;32;19973;-72
2022/02/23 11:56:17;;;;;;;;;;;;;;;21.58;30.36;100607.38;4440775;32;20419;-73
2022/02/23 12:01:20;;;;;;;;;;;;;;;20.20;32.41;100583.84;3947422;32;15730343;-71
2022/02/23 12:04:05;;;;;;;;;;;;;;;20.20;32.41;100583.84;4423761;32;19984;-72
2022/02/23 12:06:50;;;;;;;;;;;;;;;19.29;33.67;100593.37;4424303;32;19993;-72
2022/02/23 12:09:36;;;;;;;;;;;;;;;19.30;33.71;100589.22;4424061;32;20041;-72
2022/02/23 12:12:01;;;;;;;;;;;;;;;19.45;33.76;100569.94;4422982;32;20599;-72
2022/02/23 12:14:47;;;;;;;;;;;;;;;20.19;32.64;100561.50;4424545;32;20076;-72
2022/02/23 12:17:32;;;;;;;;;;;;;;;20.30;31.93;100533.78;4423548;32;20264;-72
2022/02/23 12:19:58;;;;;;;;;;;;;;;21.15;30.92;100555.25;4424884;32;19993;-72
2022/02/23 12:22:26;;;;;;;;;;;;;;;21.18;30.81;100539.13;4427063;32;20588;-72
2022/02/23 12:24:52;;;;;;;;;;;;;;;21.39;30.67;100535.50;4424277;32;20039;-72
2022/02/23 12:27:26;;;;;;;;;;;;;;;21.79;30.27;100556.41;4423833;32;20046;-72
2022/02/23 12:29:53;;;;;;;;;;;;;;;23.02;28.61;100539.97;4425384;32;20012;-72
2022/02/23 12:32:23;;;;;;;;;;;;;;;22.08;29.55;100555.84;4424863;32;19996;-72
2022/02/23 12:34:52;;;;;;;;;;;;;;;22.29;29.38;100519.88;4423877;32;19973;-72
2022/02/23 12:37:20;;;;;;;;;;;;;;;22.26;29.52;100515.97;4423757;32;20529;-72
2022/02/23 12:39:48;;;;;;;;;;;;;;;22.24;29.54;100517.81;4425880;32;19977;-72
2022/02/23 12:42:15;;;;;;;;;;;;;;;21.75;30.35;100519.41;4421747;32;20011;-72
2022/02/23 12:44:42;;;;;;;;;;;;;;;21.46;31.06;100497.78;4424520;32;20595;-71
2022/02/23 12:47:10;;;;;;;;;;;;;;;21.57;30.80;100477.72;4422083;32;19972;-72
2022/02/23 12:49:36;;;;;;;;;;;;;;;21.98;30.44;100454.28;4423213;32;20009;-72
2022/02/23 12:52:03;;;;;;;;;;;;;;;21.66;30.64;100488.13;4425049;32;20436;-71
2022/02/23 12:54:32;;;;;;;;;;;;;;;22.13;30.15;100461.28;4424544;32;19995;-70
2022/02/23 12:56:58;;;;;;;;;;;;;;;22.48;29.70;100441.34;4423697;32;19989;-71
2022/02/23 12:59:25;;;;;;;;;;;;;;;22.45;29.40;100442.41;4426271;32;20005;-72
2022/02/23 13:01:53;;;;;;;;;;;;;;;21.66;30.49;100434.50;4423644;32;20017;-72
2022/02/23 13:04:20;;;;;;;;;;;;;;;22.71;29.36;100447.78;4423150;32;19986;-71
2022/02/23 13:06:47;;;;;;;;;;;;;;;22.64;29.45;100440.50;4422030;32;19996;-72
2022/02/23 13:09:14;;;;;;;;;;;;;;;23.04;28.76;100448.34;4425198;32;20074;-71
2022/02/23 13:11:42;;;;;;;;;;;;;;;22.61;29.26;100430.09;4419348;32;19984;-71
2022/02/23 13:14:11;;;;;;;;;;;;;;;22.98;28.67;100435.38;4411629;32;20369;-72
2022/02/23 13:16:37;;;;;;;;;;;;;;;23.01;28.65;100440.81;4412759;32;19955;-71
2022/02/23 13:19:13;;;;;;;;;;;;;;;21.94;29.81;100410.78;4413790;32;21120;-72
2022/02/23 13:21:40;;;;;;;;;;;;;;;22.12;29.43;100407.34;4411941;32;19989;-72
2022/02/23 13:24:08;;;;;;;;;;;;;;;21.91;29.87;100403.25;4415471;32;19985;-72
2022/02/23 13:26:36;;;;;;;;;;;;;;;21.42;30.56;100399.16;4413536;32;20015;-72
2022/02/23 13:29:05;;;;;;;;;;;;;;;21.53;30.15;100416.28;4414410;32;19989;-70
2022/02/23 13:31:35;;;;;;;;;;;;;;;21.57;30.16;100383.22;4400399;32;20327;-73
2022/02/23 13:34:21;;;;;;;;;;;;;;;20.70;30.84;100393.34;4416200;32;20020;-73
2022/02/23 13:36:47;;;;;;;;;;;;;;;20.34;31.27;100399.97;4410125;32;20001;-73
2022/02/23 13:39:14;;;;;;;;;;;;;;;20.91;30.74;100363.22;4408107;32;20011;-73
2022/02/23 13:41:49;;;;;;;;;;;;;;;20.42;31.28;100368.81;4411551;32;19987;-72
2022/02/23 13:44:34;;;;;;;;;;;;;;;20.51;31.03;100362.87;4415261;32;19986;-71
2022/02/23 13:47:03;;;;;;;;;;;;;;;20.16;31.59;100342.50;4406230;32;20008;-72
2022/02/23 13:49:29;;;;;;;;;;;;;;;19.73;32.27;100356.06;4405775;32;19949;-72
2022/02/23 13:51:55;;;;;;;;;;;;;;;19.61;32.68;100357.28;4409654;32;20007;-73
2022/02/23 13:54:21;;;;;;;;;;;;;;;19.62;32.76;100327.44;4409071;32;20150;-72
2022/02/23 13:56:48;;;;;;;;;;;;;;;19.68;32.93;100336.81;4412243;32;20026;-72
2022/02/23 13:59:15;;;;;;;;;;;;;;;20.44;31.81;100338.44;4406138;32;19996;-72
2022/02/23 14:02:00;;;;;;;;;;;;;;;20.61;31.62;100347.03;4403142;32;20948;-72
2022/02/23 14:04:42;;;;;;;;;;;;;;;21.91;29.90;100329.53;4405721;32;20031;-72